createdAt,value
2023-03-20T00:00:22.162Z,96031.00
2023-03-20T00:01:21.346Z,96031.00
2023-03-20T00:02:22.161Z,96031.00
2023-03-20T00:03:22.252Z,96027.00
2023-03-20T00:04:22.176Z,96029.00
2023-03-20T00:05:22.137Z,96029.00
2023-03-20T00:06:21.138Z,96025.00
2023-03-20T00:07:21.115Z,96027.00
2023-03-20T00:08:22.136Z,96029.00
2023-03-20T00:09:22.161Z,96027.00
2023-03-20T00:10:21.105Z,96031.00
2023-03-20T00:11:22.097Z,96027.00
2023-03-20T00:12:21.071Z,96029.00
2023-03-20T00:13:22.064Z,96031.00
2023-03-20T00:14:22.072Z,96029.00
2023-03-20T00:15:21.053Z,96029.00
2023-03-20T00:16:22.151Z,96031.00
2023-03-20T00:17:21.270Z,96029.00
2023-03-20T00:18:22.045Z,96029.00
2023-03-20T00:19:22.029Z,96031.00
2023-03-20T00:20:22.079Z,96031.00
2023-03-20T00:21:22.016Z,96033.00
2023-03-20T00:22:22.061Z,96035.00
2023-03-20T00:23:21.054Z,96037.00
2023-03-20T00:24:21.048Z,96037.00
2023-03-20T00:25:22.041Z,96039.00
2023-03-20T00:26:22.059Z,96041.00
2023-03-20T00:27:22.074Z,96039.00
2023-03-20T00:28:22.076Z,96039.00
2023-03-20T00:29:21.121Z,96039.00
2023-03-20T00:30:22.089Z,96041.00
2023-03-20T00:31:22.141Z,96045.00
2023-03-20T00:32:22.099Z,96047.00
2023-03-20T00:33:22.092Z,96047.00
2023-03-20T00:34:22.120Z,96047.00
2023-03-20T00:35:22.105Z,96048.00
2023-03-20T00:36:22.116Z,96050.00
2023-03-20T00:37:21.114Z,96050.00
2023-03-20T00:38:22.132Z,96052.00
2023-03-20T00:39:21.119Z,96054.00
2023-03-20T00:40:22.112Z,96052.00
2023-03-20T00:41:21.126Z,96056.00
2023-03-20T00:42:21.129Z,96056.00
2023-03-20T00:43:21.138Z,96058.00
2023-03-20T00:44:21.133Z,96058.00
2023-03-20T00:45:21.132Z,96056.00
2023-03-20T00:46:21.163Z,96058.00
2023-03-20T00:47:22.149Z,96056.00
2023-03-20T00:48:22.141Z,96056.00
2023-03-20T00:49:22.153Z,96054.00
2023-03-20T00:50:22.156Z,96054.00
2023-03-20T00:51:22.185Z,96050.00
2023-03-20T00:52:21.206Z,96050.00
2023-03-20T00:53:22.174Z,96048.00
2023-03-20T00:54:22.212Z,96048.00
2023-03-20T00:55:22.203Z,96048.00
2023-03-20T00:56:22.187Z,96050.00
2023-03-20T00:57:22.227Z,96050.00
2023-03-20T00:58:22.194Z,96048.00
2023-03-20T00:59:22.196Z,96050.00
2023-03-20T01:00:22.198Z,96047.00
2023-03-20T01:01:22.200Z,96048.00
2023-03-20T01:02:22.299Z,96048.00
2023-03-20T01:03:21.236Z,96048.00
2023-03-20T01:04:22.234Z,96048.00
2023-03-20T01:05:22.239Z,96043.00
2023-03-20T01:06:22.259Z,96045.00
2023-03-20T01:07:22.262Z,96045.00
2023-03-20T01:08:22.251Z,96045.00
2023-03-20T01:09:22.268Z,96041.00
2023-03-20T01:10:22.298Z,96043.00
2023-03-20T01:11:21.259Z,96045.00
2023-03-20T01:12:22.273Z,96043.00
2023-03-20T01:13:21.267Z,96045.00
2023-03-20T01:14:22.263Z,96043.00
2023-03-20T01:15:22.257Z,96043.00
2023-03-20T01:16:21.318Z,96045.00
2023-03-20T01:17:22.264Z,96045.00
2023-03-20T01:18:22.263Z,96045.00
2023-03-20T01:19:22.259Z,96041.00
2023-03-20T01:20:22.245Z,96045.00
2023-03-20T01:21:22.241Z,96041.00
2023-03-20T01:22:22.244Z,96045.00
2023-03-20T01:23:22.242Z,96045.00
2023-03-20T01:24:22.249Z,96039.00
2023-03-20T01:25:22.268Z,96041.00
2023-03-20T01:26:22.291Z,96041.00
2023-03-20T01:27:21.256Z,96045.00
2023-03-20T01:28:22.264Z,96039.00
2023-03-20T01:29:22.274Z,96041.00
2023-03-20T01:30:22.269Z,96039.00
2023-03-20T01:31:22.381Z,96041.00
2023-03-20T01:32:21.268Z,96041.00
2023-03-20T01:33:22.275Z,96043.00
2023-03-20T01:34:22.279Z,96045.00
2023-03-20T01:35:21.264Z,96043.00
2023-03-20T01:36:21.269Z,96045.00
2023-03-20T01:37:22.272Z,96045.00
2023-03-20T01:38:21.507Z,96047.00
2023-03-20T01:39:22.268Z,96047.00
2023-03-20T01:40:22.259Z,96048.00
2023-03-20T01:41:22.266Z,96047.00
2023-03-20T01:42:21.286Z,96048.00
2023-03-20T01:43:22.328Z,96047.00
2023-03-20T01:44:22.508Z,96045.00
2023-03-20T01:45:22.263Z,96047.00
2023-03-20T01:46:22.315Z,96048.00
2023-03-20T01:47:21.271Z,96045.00
2023-03-20T01:48:22.299Z,96050.00
2023-03-20T01:49:22.306Z,96048.00
2023-03-20T01:50:22.287Z,96048.00
2023-03-20T01:51:22.337Z,96048.00
2023-03-20T01:52:21.296Z,96048.00
2023-03-20T01:53:22.315Z,96048.00
2023-03-20T01:54:22.420Z,96047.00
2023-03-20T01:55:22.327Z,96047.00
2023-03-20T01:56:22.311Z,96048.00
2023-03-20T01:57:21.325Z,96047.00
2023-03-20T01:58:22.374Z,96048.00
2023-03-20T01:59:22.338Z,96048.00
2023-03-20T02:00:21.357Z,96048.00
2023-03-20T02:01:22.463Z,96050.00
2023-03-20T02:02:21.356Z,96048.00
2023-03-20T02:03:22.407Z,96050.00
2023-03-20T02:04:22.409Z,96048.00
2023-03-20T02:05:22.394Z,96050.00
2023-03-20T02:06:21.386Z,96048.00
2023-03-20T02:07:22.372Z,96048.00
2023-03-20T02:08:22.381Z,96045.00
2023-03-20T02:09:22.376Z,96047.00
2023-03-20T02:10:21.362Z,96041.00
2023-03-20T02:11:22.353Z,96043.00
2023-03-20T02:12:22.360Z,96045.00
2023-03-20T02:13:22.378Z,96041.00
2023-03-20T02:14:22.372Z,96041.00
2023-03-20T02:15:21.361Z,96037.00
2023-03-20T02:16:22.437Z,96039.00
2023-03-20T02:17:22.368Z,96037.00
2023-03-20T02:18:21.385Z,96037.00
2023-03-20T02:19:21.369Z,96037.00
2023-03-20T02:20:22.372Z,96039.00
2023-03-20T02:21:21.371Z,96037.00
2023-03-20T02:22:21.372Z,96039.00
2023-03-20T02:23:22.355Z,96041.00
2023-03-20T02:24:22.341Z,96039.00
2023-03-20T02:25:22.361Z,96039.00
2023-03-20T02:26:21.512Z,96039.00
2023-03-20T02:27:22.342Z,96039.00
2023-03-20T02:28:22.340Z,96041.00
2023-03-20T02:29:22.341Z,96041.00
2023-03-20T02:30:22.371Z,96043.00
2023-03-20T02:31:22.425Z,96041.00
2023-03-20T02:32:22.338Z,96043.00
2023-03-20T02:33:22.358Z,96043.00
2023-03-20T02:34:22.363Z,96041.00
2023-03-20T02:35:22.362Z,96041.00
2023-03-20T02:36:21.493Z,96041.00
2023-03-20T02:37:21.383Z,96039.00
2023-03-20T02:38:22.385Z,96041.00
2023-03-20T02:39:22.395Z,96039.00
2023-03-20T02:40:22.409Z,96041.00
2023-03-20T02:41:22.668Z,96041.00
2023-03-20T02:42:22.421Z,96043.00
2023-03-20T02:43:22.448Z,96045.00
2023-03-20T02:44:21.448Z,96043.00
2023-03-20T02:45:22.445Z,96039.00
2023-03-20T02:46:21.502Z,96039.00
2023-03-20T02:47:22.455Z,96039.00
2023-03-20T02:48:22.476Z,96037.00
2023-03-20T02:49:22.458Z,96039.00
2023-03-20T02:50:21.474Z,96039.00
2023-03-20T02:51:21.468Z,96037.00
2023-03-20T02:52:22.489Z,96037.00
2023-03-20T02:53:22.475Z,96041.00
2023-03-20T02:54:22.478Z,96037.00
2023-03-20T02:55:22.457Z,96039.00
2023-03-20T02:56:21.467Z,96035.00
2023-03-20T02:57:22.494Z,96035.00
2023-03-20T02:58:22.502Z,96037.00
2023-03-20T02:59:22.502Z,96035.00
2023-03-20T03:00:22.509Z,96035.00
2023-03-20T03:01:22.569Z,96035.00
2023-03-20T03:02:22.618Z,96035.00
2023-03-20T03:03:22.541Z,96035.00
2023-03-20T03:04:22.547Z,96035.00
2023-03-20T03:05:22.524Z,96035.00
2023-03-20T03:06:22.531Z,96035.00
2023-03-20T03:07:22.522Z,96035.00
2023-03-20T03:08:22.525Z,96035.00
2023-03-20T03:09:22.519Z,96037.00
2023-03-20T03:10:21.536Z,96035.00
2023-03-20T03:11:22.526Z,96037.00
2023-03-20T03:12:22.513Z,96035.00
2023-03-20T03:13:21.508Z,96033.00
2023-03-20T03:14:22.545Z,96037.00
2023-03-20T03:15:22.579Z,96035.00
2023-03-20T03:16:22.597Z,96033.00
2023-03-20T03:17:22.539Z,96033.00
2023-03-20T03:18:22.560Z,96039.00
2023-03-20T03:19:22.543Z,96039.00
2023-03-20T03:20:22.575Z,96037.00
2023-03-20T03:21:22.556Z,96037.00
2023-03-20T03:22:22.524Z,96039.00
2023-03-20T03:23:22.537Z,96039.00
2023-03-20T03:24:37.342Z,96039.00
2023-03-20T03:25:22.525Z,96037.00
2023-03-20T03:26:22.525Z,96039.00
2023-03-20T03:27:22.590Z,96037.00
2023-03-20T03:28:22.500Z,96037.00
2023-03-20T03:29:21.511Z,96037.00
2023-03-20T03:30:22.511Z,96037.00
2023-03-20T03:31:22.514Z,96037.00
2023-03-20T03:32:22.492Z,96037.00
2023-03-20T03:33:22.517Z,96039.00
2023-03-20T03:34:22.499Z,96037.00
2023-03-20T03:35:22.462Z,96037.00
2023-03-20T03:36:21.453Z,96035.00
2023-03-20T03:37:21.448Z,96037.00
2023-03-20T03:38:21.452Z,96037.00
2023-03-20T03:39:22.435Z,96037.00
2023-03-20T03:40:22.427Z,96035.00
2023-03-20T03:41:21.433Z,96039.00
2023-03-20T03:42:21.422Z,96041.00
2023-03-20T03:43:22.408Z,96043.00
2023-03-20T03:44:22.407Z,96043.00
2023-03-20T03:45:22.385Z,96041.00
2023-03-20T03:46:22.424Z,96043.00
2023-03-20T03:47:22.366Z,96043.00
2023-03-20T03:48:22.358Z,96045.00
2023-03-20T03:49:22.358Z,96043.00
2023-03-20T03:50:22.377Z,96043.00
2023-03-20T03:51:22.340Z,96045.00
2023-03-20T03:52:22.361Z,96045.00
2023-03-20T03:53:22.335Z,96045.00
2023-03-20T03:54:22.325Z,96045.00
2023-03-20T03:55:22.321Z,96047.00
2023-03-20T03:56:22.459Z,96043.00
2023-03-20T03:57:22.316Z,96045.00
2023-03-20T03:58:22.290Z,96045.00
2023-03-20T03:59:22.285Z,96048.00
2023-03-20T04:00:22.312Z,96050.00
2023-03-20T04:01:22.269Z,96048.00
2023-03-20T04:02:22.335Z,96048.00
2023-03-20T04:03:22.257Z,96048.00
2023-03-20T04:04:22.379Z,96047.00
2023-03-20T04:05:22.267Z,96048.00
2023-03-20T04:06:22.296Z,96048.00
2023-03-20T04:07:22.238Z,96048.00
2023-03-20T04:08:22.240Z,96050.00
2023-03-20T04:09:22.235Z,96052.00
2023-03-20T04:10:22.227Z,96052.00
2023-03-20T04:11:22.223Z,96052.00
2023-03-20T04:12:22.207Z,96054.00
2023-03-20T04:13:21.233Z,96056.00
2023-03-20T04:14:22.199Z,96056.00
2023-03-20T04:15:22.198Z,96058.00
2023-03-20T04:16:22.242Z,96058.00
2023-03-20T04:17:22.174Z,96058.00
2023-03-20T04:18:21.162Z,96066.00
2023-03-20T04:19:22.158Z,96062.00
2023-03-20T04:20:21.142Z,96064.00
2023-03-20T04:21:22.160Z,96064.00
2023-03-20T04:22:22.173Z,96064.00
2023-03-20T04:23:22.207Z,96068.00
2023-03-20T04:24:22.126Z,96066.00
2023-03-20T04:25:21.133Z,96066.00
2023-03-20T04:26:21.107Z,96068.00
2023-03-20T04:27:22.104Z,96070.00
2023-03-20T04:28:22.095Z,96070.00
2023-03-20T04:29:22.094Z,96072.00
2023-03-20T04:30:21.086Z,96072.00
2023-03-20T04:31:22.112Z,96074.00
2023-03-20T04:32:21.058Z,96076.00
2023-03-20T04:33:22.072Z,96076.00
2023-03-20T04:34:22.060Z,96078.00
2023-03-20T04:35:22.048Z,96078.00
2023-03-20T04:36:22.145Z,96080.00
2023-03-20T04:37:21.037Z,96080.00
2023-03-20T04:38:21.050Z,96082.00
2023-03-20T04:39:22.007Z,96080.00
2023-03-20T04:40:21.012Z,96082.00
2023-03-20T04:41:22.000Z,96084.00
2023-03-20T04:42:22.018Z,96084.00
2023-03-20T04:43:21.981Z,96084.00
2023-03-20T04:44:21.992Z,96086.00
2023-03-20T04:45:21.971Z,96086.00
2023-03-20T04:46:22.047Z,96088.00
2023-03-20T04:47:22.057Z,96088.00
2023-03-20T04:48:21.965Z,96088.00
2023-03-20T04:49:20.955Z,96088.00
2023-03-20T04:50:21.944Z,96088.00
2023-03-20T04:51:20.942Z,96088.00
2023-03-20T04:52:21.940Z,96084.00
2023-03-20T04:53:21.915Z,96086.00
2023-03-20T04:54:21.968Z,96088.00
2023-03-20T04:55:20.916Z,96088.00
2023-03-20T04:56:21.922Z,96088.00
2023-03-20T04:57:21.899Z,96092.00
2023-03-20T04:58:21.907Z,96090.00
2023-03-20T04:59:21.881Z,96090.00
2023-03-20T05:00:21.917Z,96090.00
2023-03-20T05:01:21.931Z,96090.00
2023-03-20T05:02:21.866Z,96092.00
2023-03-20T05:03:23.944Z,96092.00
2023-03-20T05:04:20.886Z,96092.00
2023-03-20T05:05:20.835Z,96094.00
2023-03-20T05:06:20.834Z,96095.00
2023-03-20T05:07:21.835Z,96094.00
2023-03-20T05:08:21.824Z,96097.00
2023-03-20T05:09:21.817Z,96095.00
2023-03-20T05:10:21.841Z,96097.00
2023-03-20T05:11:21.789Z,96097.00
2023-03-20T05:12:21.835Z,96099.00
2023-03-20T05:13:20.786Z,96099.00
2023-03-20T05:14:20.779Z,96103.00
2023-03-20T05:15:21.767Z,96103.00
2023-03-20T05:16:21.832Z,96103.00
2023-03-20T05:17:21.761Z,96103.00
2023-03-20T05:18:21.812Z,96103.00
2023-03-20T05:19:22.086Z,96103.00
2023-03-20T05:20:20.722Z,96105.00
2023-03-20T05:21:21.719Z,96103.00
2023-03-20T05:22:20.718Z,96105.00
2023-03-20T05:23:21.717Z,96105.00
2023-03-20T05:24:21.703Z,96107.00
2023-03-20T05:25:21.705Z,96107.00
2023-03-20T05:26:21.717Z,96107.00
2023-03-20T05:27:21.687Z,96107.00
2023-03-20T05:28:21.674Z,96107.00
2023-03-20T05:29:21.672Z,96107.00
2023-03-20T05:30:21.725Z,96107.00
2023-03-20T05:31:20.785Z,96109.00
2023-03-20T05:32:21.646Z,96111.00
2023-03-20T05:33:20.648Z,96111.00
2023-03-20T05:34:20.635Z,96113.00
2023-03-20T05:35:20.633Z,96111.00
2023-03-20T05:36:20.729Z,96115.00
2023-03-20T05:37:21.704Z,96115.00
2023-03-20T05:38:21.650Z,96113.00
2023-03-20T05:39:20.608Z,96117.00
2023-03-20T05:40:21.608Z,96117.00
2023-03-20T05:41:20.599Z,96117.00
2023-03-20T05:42:21.644Z,96117.00
2023-03-20T05:43:21.632Z,96117.00
2023-03-20T05:44:21.683Z,96121.00
2023-03-20T05:45:21.584Z,96117.00
2023-03-20T05:46:21.669Z,96117.00
2023-03-20T05:47:23.600Z,96119.00
2023-03-20T05:48:20.545Z,96121.00
2023-03-20T05:49:20.527Z,96119.00
2023-03-20T05:50:21.535Z,96121.00
2023-03-20T05:51:20.523Z,96121.00
2023-03-20T05:52:21.526Z,96121.00
2023-03-20T05:53:21.537Z,96123.00
2023-03-20T05:54:21.509Z,96125.00
2023-03-20T05:55:20.514Z,96125.00
2023-03-20T05:56:20.567Z,96125.00
2023-03-20T05:57:21.485Z,96125.00
2023-03-20T05:58:21.591Z,96123.00
2023-03-20T05:59:21.621Z,96125.00
2023-03-20T06:00:20.459Z,96123.00
2023-03-20T06:01:20.470Z,96125.00
2023-03-20T06:02:20.635Z,96123.00
2023-03-20T06:03:20.538Z,96125.00
2023-03-20T06:04:20.441Z,96125.00
2023-03-20T06:11:21.412Z,96129.00
2023-03-20T06:12:21.389Z,96131.00
2023-03-20T06:17:21.358Z,96135.00
2023-03-20T06:24:21.308Z,96144.00
2023-03-20T06:27:21.300Z,96148.00
2023-03-20T06:45:20.183Z,96164.00
2023-03-20T06:53:20.590Z,96180.00
2023-03-20T07:09:20.887Z,96192.00
2023-03-20T07:12:21.900Z,96192.00
2023-03-20T07:17:22.134Z,96202.00
2023-03-20T07:18:22.221Z,96205.00
2023-03-20T07:22:21.432Z,96205.00
2023-03-20T07:24:21.521Z,96203.00
2023-03-20T07:25:35.365Z,96205.00
2023-03-20T07:27:22.573Z,96205.00
2023-03-20T07:31:22.558Z,96211.00
2023-03-20T07:33:22.635Z,96217.00
2023-03-20T07:34:21.540Z,96215.00
2023-03-20T11:09:26.293Z,96160.00
2023-03-20T11:10:26.301Z,96162.00
2023-03-20T11:11:26.313Z,96156.00
2023-03-20T11:12:26.333Z,96156.00
2023-03-20T11:13:26.365Z,96156.00
2023-03-20T11:14:26.333Z,96156.00
2023-03-20T11:17:26.346Z,96148.00
2023-03-20T11:19:26.410Z,96146.00
2023-03-20T11:20:26.424Z,96146.00
2023-03-20T11:22:26.490Z,96148.00
2023-03-20T11:23:26.521Z,96146.00
2023-03-20T11:24:26.572Z,96146.00
2023-03-20T11:25:26.608Z,96146.00
2023-03-20T11:28:27.069Z,96148.00
2023-03-20T11:30:26.895Z,96144.00
2023-03-20T11:31:27.009Z,96146.00
2023-03-20T11:32:27.023Z,96144.00
2023-03-20T11:34:26.256Z,96144.00
2023-03-20T11:35:27.195Z,96142.00
2023-03-20T11:36:28.003Z,96139.00
2023-03-20T11:37:27.291Z,96137.00
2023-03-20T11:38:27.376Z,96135.00
2023-03-20T11:39:27.414Z,96131.00
2023-03-20T11:40:27.445Z,96131.00
2023-03-20T11:41:26.508Z,96129.00
2023-03-20T11:42:27.556Z,96125.00
2023-03-20T11:43:27.774Z,96129.00
2023-03-20T11:44:27.678Z,96127.00
2023-03-20T11:45:27.745Z,96129.00
2023-03-20T11:46:27.773Z,96125.00
2023-03-20T11:47:27.824Z,96123.00
2023-03-20T11:48:27.864Z,96121.00
2023-03-20T11:49:27.965Z,96121.00
2023-03-20T11:50:26.934Z,96121.00
2023-03-20T11:51:27.908Z,96119.00
2023-03-20T11:52:27.955Z,96115.00
2023-03-20T11:53:28.285Z,96111.00
2023-03-20T11:54:27.984Z,96113.00
2023-03-20T11:55:27.986Z,96111.00
2023-03-20T11:56:28.037Z,96109.00
2023-03-20T11:57:27.046Z,96107.00
2023-03-20T11:58:27.176Z,96105.00
2023-03-20T11:59:28.070Z,96103.00
2023-03-20T12:00:28.075Z,96103.00
2023-03-20T12:01:28.073Z,96103.00
2023-03-20T12:02:28.206Z,96107.00
2023-03-20T12:03:28.161Z,96105.00
2023-03-20T12:04:27.085Z,96105.00
2023-03-20T12:05:28.113Z,96105.00
2023-03-20T12:06:28.077Z,96101.00
2023-03-20T12:07:28.107Z,96103.00
2023-03-20T12:08:28.085Z,96099.00
2023-03-20T12:09:28.096Z,96099.00
2023-03-20T12:10:28.084Z,96097.00
2023-03-20T12:11:28.065Z,96094.00
2023-03-20T12:12:28.092Z,96094.00
2023-03-20T12:13:28.064Z,96095.00
2023-03-20T12:14:28.198Z,96095.00
2023-03-20T12:15:28.175Z,96097.00
2023-03-20T12:16:28.168Z,96097.00
2023-03-20T12:17:28.126Z,96097.00
2023-03-20T12:18:27.157Z,96097.00
2023-03-20T12:19:27.139Z,96095.00
2023-03-20T12:20:28.166Z,96099.00
2023-03-20T12:21:27.205Z,96097.00
2023-03-20T12:22:28.175Z,96094.00
2023-03-20T12:23:28.173Z,96094.00
2023-03-20T12:24:27.171Z,96090.00
2023-03-20T12:25:28.168Z,96092.00
2023-03-20T12:26:28.162Z,96088.00
2023-03-20T12:27:27.202Z,96088.00
2023-03-20T12:28:28.193Z,96086.00
2023-03-20T12:29:28.196Z,96080.00
2023-03-20T12:30:28.198Z,96080.00
2023-03-20T12:31:28.283Z,96082.00
2023-03-20T12:32:28.215Z,96080.00
2023-03-20T12:33:28.193Z,96076.00
2023-03-20T12:34:28.203Z,96078.00
2023-03-20T12:35:28.173Z,96080.00
2023-03-20T12:36:27.205Z,96080.00
2023-03-20T12:37:27.209Z,96078.00
2023-03-20T12:38:28.796Z,96078.00
2023-03-20T12:39:28.182Z,96080.00
2023-03-20T12:40:28.164Z,96078.00
2023-03-20T12:41:28.165Z,96078.00
2023-03-20T12:42:28.157Z,96076.00
2023-03-20T12:43:28.174Z,96080.00
2023-03-20T12:44:28.161Z,96078.00
2023-03-20T12:45:28.164Z,96078.00
2023-03-20T12:46:28.210Z,96078.00
2023-03-20T12:47:28.173Z,96080.00
2023-03-20T12:48:28.195Z,96080.00
2023-03-20T12:49:28.193Z,96080.00
2023-03-20T12:50:28.169Z,96080.00
2023-03-20T12:51:28.175Z,96082.00
2023-03-20T12:52:28.166Z,96080.00
2023-03-20T12:53:28.198Z,96082.00
2023-03-20T12:54:28.160Z,96084.00
2023-03-20T12:55:28.163Z,96084.00
2023-03-20T12:56:28.170Z,96080.00
2023-03-20T12:57:28.199Z,96080.00
2023-03-20T12:58:28.191Z,96080.00
2023-03-20T12:59:27.180Z,96078.00
2023-03-20T13:00:28.199Z,96082.00
2023-03-20T13:09:27.335Z,96088.00
2023-03-20T13:11:28.335Z,96092.00
2023-03-20T13:12:28.350Z,96090.00
2023-03-20T13:24:27.489Z,96092.00
2023-03-20T13:31:27.672Z,96095.00
2023-03-20T13:34:27.673Z,96097.00
2023-03-20T13:36:27.739Z,96097.00
2023-03-20T13:38:27.778Z,96099.00
2023-03-20T13:43:27.846Z,96097.00
2023-03-20T13:51:27.905Z,96094.00
2023-03-20T13:59:29.734Z,96078.00
2023-03-20T14:00:27.999Z,96076.00
2023-03-20T14:04:35.084Z,96070.00
2023-03-20T14:13:28.218Z,96078.00
2023-03-20T14:17:28.033Z,96078.00
2023-03-20T14:21:27.962Z,96076.00
2023-03-20T14:24:27.938Z,96076.00
2023-03-20T14:28:27.929Z,96078.00
2023-03-20T14:29:27.932Z,96078.00
2023-03-20T14:33:27.879Z,96074.00
2023-03-20T14:38:27.841Z,96072.00
2023-03-20T14:56:28.700Z,96074.00
2023-03-20T14:57:28.698Z,96076.00
2023-03-20T14:59:27.684Z,96076.00
2023-03-20T15:00:28.672Z,96078.00
2023-03-20T15:01:28.726Z,96074.00
2023-03-20T15:02:28.688Z,96076.00
2023-03-20T15:03:28.657Z,96074.00
2023-03-20T15:04:28.674Z,96074.00
2023-03-20T15:05:27.624Z,96072.00
2023-03-20T15:06:28.622Z,96070.00
2023-03-20T15:07:28.614Z,96072.00
2023-03-20T15:08:27.621Z,96072.00
2023-03-20T15:09:27.641Z,96070.00
2023-03-20T15:10:27.612Z,96070.00
2023-03-20T15:11:27.608Z,96072.00
2023-03-20T15:12:28.617Z,96070.00
2023-03-20T15:13:28.568Z,96066.00
2023-03-20T15:14:28.573Z,96066.00
2023-03-20T15:15:28.569Z,96068.00
2023-03-20T15:16:28.600Z,96066.00
2023-03-20T15:18:28.622Z,96066.00
2023-03-20T15:27:28.747Z,96060.00
2023-03-20T15:29:28.756Z,96060.00
2023-03-20T15:31:27.768Z,96056.00
2023-03-20T15:33:28.825Z,96054.00
2023-03-20T15:34:28.827Z,96054.00
2023-03-20T15:35:28.830Z,96058.00
2023-03-20T15:36:28.856Z,96056.00
2023-03-20T15:37:28.887Z,96056.00
2023-03-20T15:57:28.477Z,96054.00
2023-03-20T16:01:29.627Z,96054.00
2023-03-20T16:02:29.623Z,96052.00
2023-03-20T16:07:29.824Z,96052.00
2023-03-20T16:30:37.009Z,96033.00
2023-03-20T16:31:30.499Z,96037.00
2023-03-20T16:32:30.423Z,96037.00
2023-03-20T16:33:30.417Z,96041.00
2023-03-20T16:34:30.426Z,96041.00
2023-03-20T16:35:29.412Z,96045.00
2023-03-20T16:36:30.490Z,96043.00
2023-03-20T16:37:30.430Z,96043.00
2023-03-20T16:38:30.387Z,96043.00
2023-03-20T16:39:30.380Z,96039.00
2023-03-20T16:40:30.380Z,96041.00
2023-03-20T16:41:30.375Z,96039.00
2023-03-20T16:42:30.373Z,96037.00
2023-03-20T16:43:30.393Z,96037.00
2023-03-20T16:44:30.382Z,96037.00
2023-03-20T16:45:30.347Z,96035.00
2023-03-20T16:46:30.364Z,96035.00
2023-03-20T16:47:30.337Z,96033.00
2023-03-20T16:48:30.393Z,96033.00
2023-03-20T16:49:30.335Z,96033.00
2023-03-20T16:50:29.322Z,96029.00
2023-03-20T16:51:30.367Z,96029.00
2023-03-20T16:52:30.395Z,96025.00
2023-03-20T16:53:29.465Z,96027.00
2023-03-20T16:54:30.478Z,96025.00
2023-03-20T16:55:30.535Z,96025.00
2023-03-20T16:56:30.583Z,96025.00
2023-03-20T16:57:30.599Z,96027.00
2023-03-20T16:58:30.668Z,96027.00
2023-03-20T16:59:29.705Z,96023.00
2023-03-20T17:00:30.739Z,96025.00
2023-03-20T17:01:30.815Z,96025.00
2023-03-20T17:02:30.838Z,96023.00
2023-03-20T17:03:30.872Z,96023.00
2023-03-20T17:04:30.955Z,96025.00
2023-03-20T17:05:30.979Z,96021.00
2023-03-20T17:06:30.012Z,96023.00
2023-03-20T17:07:31.076Z,96025.00
2023-03-20T17:08:31.109Z,96027.00
2023-03-20T17:09:31.194Z,96031.00
2023-03-20T17:10:31.211Z,96031.00
2023-03-20T17:11:31.268Z,96035.00
2023-03-20T17:12:31.320Z,96037.00
2023-03-20T17:13:31.382Z,96035.00
2023-03-20T17:14:31.434Z,96039.00
2023-03-20T17:15:31.496Z,96043.00
2023-03-20T17:16:31.624Z,96043.00
2023-03-20T17:17:30.560Z,96043.00
2023-03-20T17:18:31.608Z,96045.00
2023-03-20T17:19:30.663Z,96045.00
2023-03-20T17:20:31.740Z,96043.00
2023-03-20T17:21:31.855Z,96045.00
2023-03-20T17:22:30.849Z,96047.00
2023-03-20T17:23:31.897Z,96048.00
2023-03-20T17:24:31.954Z,96047.00
2023-03-20T17:25:31.029Z,96050.00
2023-03-20T17:26:31.082Z,96048.00
2023-03-20T17:27:32.126Z,96050.00
2023-03-20T17:28:32.193Z,96050.00
2023-03-20T17:29:32.228Z,96050.00
2023-03-20T17:30:31.303Z,96052.00
2023-03-20T17:31:32.399Z,96052.00
2023-03-20T17:32:32.403Z,96054.00
2023-03-20T17:33:32.466Z,96058.00
2023-03-20T17:34:32.529Z,96058.00
2023-03-20T17:35:31.851Z,96056.00
2023-03-20T17:36:32.662Z,96056.00
2023-03-20T17:37:32.725Z,96056.00
2023-03-20T17:38:32.777Z,96058.00
2023-03-20T17:39:32.873Z,96052.00
2023-03-20T17:40:32.933Z,96052.00
2023-03-20T17:41:32.979Z,96054.00
2023-03-20T17:42:33.027Z,96052.00
2023-03-20T17:43:33.080Z,96052.00
2023-03-20T17:44:33.168Z,96052.00
2023-03-20T17:45:33.207Z,96050.00
2023-03-20T17:46:38.109Z,96048.00
2023-03-20T17:47:33.261Z,96048.00
2023-03-20T17:48:33.258Z,96047.00
2023-03-20T17:49:33.261Z,96047.00
2023-03-20T17:50:33.232Z,96043.00
2023-03-20T17:51:32.248Z,96043.00
2023-03-20T17:52:33.549Z,96043.00
2023-03-20T17:53:33.213Z,96045.00
2023-03-20T17:54:33.203Z,96043.00
2023-03-20T17:55:33.196Z,96045.00
2023-03-20T17:56:33.237Z,96043.00
2023-03-20T17:57:33.179Z,96047.00
2023-03-20T17:58:32.189Z,96047.00
2023-03-20T17:59:33.170Z,96045.00
2023-03-20T18:00:33.187Z,96047.00
2023-03-20T18:01:32.902Z,96045.00
2023-03-20T18:02:33.265Z,96043.00
2023-03-20T18:03:33.146Z,96047.00
2023-03-20T18:04:33.192Z,96047.00
2023-03-20T18:05:33.301Z,96045.00
2023-03-20T18:06:33.125Z,96047.00
2023-03-20T18:07:33.120Z,96050.00
2023-03-20T18:08:33.117Z,96050.00
2023-03-20T18:09:32.103Z,96048.00
2023-03-20T18:10:33.166Z,96052.00
2023-03-20T18:11:33.231Z,96054.00
2023-03-20T18:12:33.319Z,96052.00
2023-03-20T18:13:33.350Z,96054.00
2023-03-20T18:14:33.434Z,96056.00
2023-03-20T18:15:32.562Z,96056.00
2023-03-20T18:16:33.540Z,96056.00
2023-03-20T18:17:33.604Z,96058.00
2023-03-20T18:18:33.658Z,96060.00
2023-03-20T18:19:33.725Z,96062.00
2023-03-20T18:20:33.694Z,96062.00
2023-03-20T18:21:33.706Z,96064.00
2023-03-20T18:22:33.734Z,96064.00
2023-03-20T18:23:33.780Z,96064.00
2023-03-20T18:24:33.804Z,96066.00
2023-03-20T18:25:33.873Z,96066.00
2023-03-20T18:26:32.839Z,96066.00
2023-03-20T18:27:33.911Z,96070.00
2023-03-20T18:28:32.959Z,96068.00
2023-03-20T18:29:33.065Z,96068.00
2023-03-20T18:30:34.144Z,96072.00
2023-03-20T18:31:34.151Z,96072.00
2023-03-20T18:32:34.142Z,96072.00
2023-03-20T18:33:34.106Z,96076.00
2023-03-20T18:34:34.143Z,96074.00
2023-03-20T18:35:34.297Z,96076.00
2023-03-20T18:36:34.214Z,96078.00
2023-03-20T18:37:34.215Z,96076.00
2023-03-20T18:38:33.239Z,96080.00
2023-03-20T18:39:34.310Z,96082.00
2023-03-20T18:40:34.524Z,96082.00
2023-03-20T18:41:33.386Z,96082.00
2023-03-20T18:42:34.426Z,96088.00
2023-03-20T18:43:34.474Z,96084.00
2023-03-20T18:44:34.530Z,96086.00
2023-03-20T18:45:34.541Z,96084.00
2023-03-20T18:46:34.590Z,96084.00
2023-03-20T18:47:33.547Z,96086.00
2023-03-20T18:48:34.601Z,96086.00
2023-03-20T18:49:34.614Z,96082.00
2023-03-20T18:50:37.160Z,96082.00
2023-03-20T18:51:34.595Z,96084.00
2023-03-20T18:52:34.610Z,96080.00
2023-03-20T18:53:34.581Z,96082.00
2023-03-20T18:54:33.597Z,96084.00
2023-03-20T18:55:33.577Z,96084.00
2023-03-20T18:56:34.569Z,96084.00
2023-03-20T18:57:34.573Z,96082.00
2023-03-20T18:58:34.552Z,96088.00
2023-03-20T18:59:34.548Z,96086.00
2023-03-20T19:00:33.561Z,96086.00
2023-03-20T19:01:34.585Z,96088.00
2023-03-20T19:02:33.522Z,96090.00
2023-03-20T19:03:34.562Z,96092.00
2023-03-20T19:04:34.518Z,96092.00
2023-03-20T19:05:34.501Z,96094.00
2023-03-20T19:06:34.496Z,96094.00
2023-03-20T19:07:34.515Z,96094.00
2023-03-20T19:08:34.474Z,96095.00
2023-03-20T19:09:34.492Z,96097.00
2023-03-20T19:10:34.612Z,96101.00
2023-03-20T19:11:33.495Z,96101.00
2023-03-20T19:12:34.457Z,96103.00
2023-03-20T19:13:34.459Z,96101.00